Main page
METAR-TAF:

METAR-TAF

Airports :

Kuwait International Airport

Kuwait City, Kuwait

latitude: 29-13N, longitude: 047-59E, elevation: 55 m

Current weather observation

The report was made 1 hour and 14 minutes ago, at 22:00 UTC
Wind 4 kt from the Northwest
Temperature 35°C
Humidity 16%
Pressure 996 hPa
Visibility 10 km or more
no clouds below 1500 m and no cumulonimbus

METAR: OKKK 142200Z 32004KT CAVOK 35/05 Q0996 NOSIG

Time: 02:14 (23:14 UTC)

Forecast

The report was made 6 hours and 14 minutes ago, at 17:00 UTC
Forecast valid from 14 at 18 UTC to 15 at 24 UTC
Wind 12 kt from the Northwest
Visibility: 7000 m

TAF: OKKK 141700Z 1418/1524 32012KT 7000 NSC

Weather observations and forecasts of more than 4000 airports (METAR and TAF reports).

The available stations are represented by yellow and red dots on the map.

Hover mouse over dot to see the name of the station.

Then click to see weather observations and forecasts.

To change the map : click on the green buttons with a black cross to zoom in, on the green button with a dash to zoom out, or on the green arrows for adjacent maps.


METAR-TAF: